Chaves — CQMY — position and weather

sailwx.info

Track history (hours):
 
Tides and Currents Weather Stations Pressure Air Temp Water Temp Dewpoint Dewpoint Depression Visibility Wind Speed Wind Dir Waves Ship Positions

Chaves

Last reported at 2017-Apr-24 19:00 UTC. Time now 2017-Apr-26 17:43 UTC.
Position N 47°15' W 005°09'.

Length 90 m; draft 5.5 m.

Type: Ship. MMSI: 255803660.

Date/timePositionNaut miles runAvg speedWind from/ knotsBaromVisibWave heightAir tempDewpointWater temp
2017-Apr-24 19:00N 47°15' W 005°09'11 9.7
2017-Apr-24 17:49N 47°26' W 005°15'5 9.9
2017-Apr-24 17:21N 47°30' W 005°18'510.1
2017-Apr-24 16:50N 47°35' W 005°20'310.1
2017-Apr-24 16:30N 47°38' W 005°22'7 9.9
2017-Apr-24 15:50N 47°45' W 005°25'69 8.2
2017-Apr-24 07:25N 48°52' W 005°47'410.0
2017-Apr-24 07:00N 48°54' W 005°41'5 9.9
2017-Apr-24 06:30N 48°56' W 005°35'5 9.6
2017-Apr-24 05:59N 48°59' W 005°28'5 9.3
2017-Apr-24 05:30N 49°01' W 005°23'23 8.0
2017-Apr-24 02:38N 49°13' W 004°52'18 7.8
2017-Apr-24 00:19N 49°22' W 004°29'22 9.5
2017-Apr-23 21:57N 49°34' W 003°59'510.4
2017-Apr-23 21:30N 49°36' W 003°53'510.3
2017-Apr-23 21:00N 49°38' W 003°46'510.1
2017-Apr-23 20:30N 49°41' W 003°39'5 9.8
2017-Apr-23 20:01N 49°44' W 003°33'5 9.4
2017-Apr-23 19:30N 49°46' W 003°26'4 8.9
2017-Apr-23 19:00N 49°48' W 003°20'4 8.5
2017-Apr-23 18:30N 49°50' W 003°15'5 8.1
2017-Apr-23 17:55N 49°53' W 003°08'3 7.8
2017-Apr-23 17:31N 49°54' W 003°04'4 7.6
2017-Apr-23 17:00N 49°56' W 002°59'4 7.5
2017-Apr-23 16:30N 49°58' W 002°54'4 7.4
2017-Apr-23 16:00N 49°59' W 002°48'4 7.6
2017-Apr-23 15:29N 50°00' W 002°42'4 8.0
2017-Apr-23 15:00N 50°02' W 002°37'89 9.3
2017-Apr-23 05:27N 50°27' W 000°23'3 7.4
2017-Apr-23 05:01N 50°28' W 000°18'4 7.7
2017-Apr-23 04:31N 50°29' W 000°13'4 8.2
2017-Apr-23 04:00N 50°31' W 000°06'4 8.6
2017-Apr-23 03:31N 50°32' W 000°00'5 9.0
2017-Apr-23 03:00N 50°33' E 000°07'5 9.4
2017-Apr-23 02:31N 50°35' E 000°14'5 9.8
2017-Apr-23 02:01N 50°36' E 000°21'510.1
2017-Apr-23 01:31N 50°38' E 000°29'510.0
2017-Apr-23 01:00N 50°40' E 000°36'5 9.9
2017-Apr-23 00:30N 50°42' E 000°43'5 9.8
2017-Apr-23 00:00N 50°45' E 000°49'5 9.4
2017-Apr-22 23:30N 50°48' E 000°55'5 9.1
2017-Apr-22 22:58N 50°51' E 001°01'4 8.7
2017-Apr-22 22:29N 50°54' E 001°06'5 8.3
2017-Apr-22 21:56N 50°56' E 001°12'3 7.9
2017-Apr-22 21:30N 50°59' E 001°16'4 7.6
2017-Apr-22 21:00N 51°01' E 001°21'4 7.9
2017-Apr-22 20:31N 51°03' E 001°26'4 8.7
2017-Apr-22 20:00N 51°06' E 001°31'5 9.0
2017-Apr-22 19:31N 51°09' E 001°36'5 9.3
2017-Apr-22 19:00N 51°12' E 001°42'5 9.8
2017-Apr-22 18:31N 51°16' E 001°47'510.8
2017-Apr-22 18:00N 51°21' E 001°49'511.0
2017-Apr-22 17:30N 51°26' E 001°52'5 9.6
2017-Apr-22 17:01N 51°31' E 001°50'510.0
2017-Apr-22 16:30N 51°36' E 001°47'510.2
2017-Apr-22 16:01N 51°41' E 001°45'510.3
2017-Apr-22 15:31N 51°46' E 001°45'510.0
2017-Apr-22 15:01N 51°51' E 001°45'4 8.1
2017-Apr-22 14:30N 51°55' E 001°45'9 8.5
2017-Apr-22 13:30N 52°03' E 001°49'4 8.2
2017-Apr-22 13:01N 52°07' E 001°52'4 8.0
2017-Apr-22 12:31N 52°10' E 001°55'51 7.6
2017-Apr-22 05:51N 53°01' E 002°06'4 9.9
2017-Apr-22 05:28N 53°03' E 002°01'6 9.8
2017-Apr-22 04:53N 53°06' E 001°53'4 9.9
2017-Apr-22 04:29N 53°08' E 001°47'5 9.9
2017-Apr-22 03:57N 53°11' E 001°40'510.0
2017-Apr-22 03:29N 53°14' E 001°34'63 9.3
2017-Apr-21 20:46N 53°60' E 000°22'2 8.2
2017-Apr-21 20:30N 54°01' E 000°20'4 8.2
2017-Apr-21 20:00N 54°05' E 000°16'4 8.1
2017-Apr-21 19:30N 54°08' E 000°12'4 7.9
2017-Apr-21 19:00N 54°11' E 000°07'4 7.9
2017-Apr-21 18:30N 54°14' E 000°03'4 7.9
2017-Apr-21 18:00N 54°17' W 000°02'4 7.9
2017-Apr-21 17:30N 54°20' W 000°06'4 8.0
2017-Apr-21 17:00N 54°23' W 000°11'4 8.1
2017-Apr-21 16:30N 54°26' W 000°15'4 8.1
2017-Apr-21 16:00N 54°29' W 000°20'4 8.5
2017-Apr-21 15:30N 54°32' W 000°25'22 8.9
2017-Apr-21 13:02N 54°43' W 000°58'2 9.0
2017-Apr-21 12:50N 54°44' W 001°00'3 9.1
2017-Apr-21 12:30N 54°45' W 001°05'5 9.2
2017-Apr-21 12:00N 54°48' W 001°12'4 8.8
2017-Apr-21 11:30N 54°51' W 001°18'  
2017-Apr-16 17:29N 54°51' W 001°18'1 0.2
2017-Apr-16 13:32N 54°51' W 001°17'0 0.2
2017-Apr-16 12:13N 54°51' W 001°18'1 2.0
2017-Apr-16 11:53N 54°51' W 001°17'2 3.3
2017-Apr-16 11:25N 54°50' W 001°14'28 5.7
2017-Apr-16 06:29N 54°40' W 000°29'4 7.5
2017-Apr-16 06:00N 54°39' W 000°23'4 7.4
2017-Apr-16 05:30N 54°38' W 000°17'4 7.5
2017-Apr-16 05:00N 54°37' W 000°11'4 7.6
2017-Apr-16 04:30N 54°35' W 000°04'4 7.6
2017-Apr-16 04:00N 54°34' E 000°02'4 7.9
2017-Apr-16 03:30N 54°32' E 000°08'4 8.2
2017-Apr-16 03:00N 54°31' E 000°15'4 8.5
2017-Apr-16 02:30N 54°30' E 000°22'4 8.7
2017-Apr-16 02:00N 54°29' E 000°29'4 8.9
2017-Apr-16 01:30N 54°27' E 000°36'175 6.5
2017-Apr-14 22:47N 52°07' E 003°32'3 9.0
2017-Apr-14 22:28N 52°06' E 003°36'4 8.8
2017-Apr-14 22:00N 52°05' E 003°42'4 8.9
2017-Apr-14 21:30N 52°03' E 003°49'4 7.6
2017-Apr-14 21:00N 52°02' E 003°55'5 9.5
2017-Apr-14 20:30N 51°60' E 004°02'510.4
2017-Apr-14 20:00N 51°58' E 004°09'611.7
2017-Apr-14 19:30N 51°54' E 004°17'  
Track history (hours):
 
Tides and Currents Weather Stations Pressure Air Temp Water Temp Dewpoint Dewpoint Depression Visibility Wind Speed Wind Dir Waves Ship Positions

Chaves

Last reported at 2017-Apr-24 19:00 UTC. Time now 2017-Apr-26 17:43 UTC.
Position N 47°15' W 005°09'.

Length 90 m; draft 5.5 m.

Type: Ship. MMSI: 255803660.

Date/timePositionNaut miles runAvg speedWind from/ knotsBaromVisibWave heightAir tempDewpointWater temp
2017-Apr-24 19:00N 47°15' W 005°09'11 9.7
2017-Apr-24 17:49N 47°26' W 005°15'5 9.9
2017-Apr-24 17:21N 47°30' W 005°18'510.1
2017-Apr-24 16:50N 47°35' W 005°20'310.1
2017-Apr-24 16:30N 47°38' W 005°22'7 9.9
2017-Apr-24 15:50N 47°45' W 005°25'69 8.2
2017-Apr-24 07:25N 48°52' W 005°47'410.0
2017-Apr-24 07:00N 48°54' W 005°41'5 9.9
2017-Apr-24 06:30N 48°56' W 005°35'5 9.6
2017-Apr-24 05:59N 48°59' W 005°28'5 9.3
2017-Apr-24 05:30N 49°01' W 005°23'23 8.0
2017-Apr-24 02:38N 49°13' W 004°52'18 7.8
2017-Apr-24 00:19N 49°22' W 004°29'22 9.5
2017-Apr-23 21:57N 49°34' W 003°59'510.4
2017-Apr-23 21:30N 49°36' W 003°53'510.3
2017-Apr-23 21:00N 49°38' W 003°46'510.1
2017-Apr-23 20:30N 49°41' W 003°39'5 9.8
2017-Apr-23 20:01N 49°44' W 003°33'5 9.4
2017-Apr-23 19:30N 49°46' W 003°26'4 8.9
2017-Apr-23 19:00N 49°48' W 003°20'4 8.5
2017-Apr-23 18:30N 49°50' W 003°15'5 8.1
2017-Apr-23 17:55N 49°53' W 003°08'3 7.8
2017-Apr-23 17:31N 49°54' W 003°04'4 7.6
2017-Apr-23 17:00N 49°56' W 002°59'4 7.5
2017-Apr-23 16:30N 49°58' W 002°54'4 7.4
2017-Apr-23 16:00N 49°59' W 002°48'4 7.6
2017-Apr-23 15:29N 50°00' W 002°42'4 8.0
2017-Apr-23 15:00N 50°02' W 002°37'89 9.3
2017-Apr-23 05:27N 50°27' W 000°23'3 7.4
2017-Apr-23 05:01N 50°28' W 000°18'4 7.7
2017-Apr-23 04:31N 50°29' W 000°13'4 8.2
2017-Apr-23 04:00N 50°31' W 000°06'4 8.6
2017-Apr-23 03:31N 50°32' W 000°00'5 9.0
2017-Apr-23 03:00N 50°33' E 000°07'5 9.4
2017-Apr-23 02:31N 50°35' E 000°14'5 9.8
2017-Apr-23 02:01N 50°36' E 000°21'510.1
2017-Apr-23 01:31N 50°38' E 000°29'510.0
2017-Apr-23 01:00N 50°40' E 000°36'5 9.9
2017-Apr-23 00:30N 50°42' E 000°43'5 9.8
2017-Apr-23 00:00N 50°45' E 000°49'5 9.4
2017-Apr-22 23:30N 50°48' E 000°55'5 9.1
2017-Apr-22 22:58N 50°51' E 001°01'4 8.7
2017-Apr-22 22:29N 50°54' E 001°06'5 8.3
2017-Apr-22 21:56N 50°56' E 001°12'3 7.9
2017-Apr-22 21:30N 50°59' E 001°16'4 7.6
2017-Apr-22 21:00N 51°01' E 001°21'4 7.9
2017-Apr-22 20:31N 51°03' E 001°26'4 8.7
2017-Apr-22 20:00N 51°06' E 001°31'5 9.0
2017-Apr-22 19:31N 51°09' E 001°36'5 9.3
2017-Apr-22 19:00N 51°12' E 001°42'5 9.8
2017-Apr-22 18:31N 51°16' E 001°47'510.8
2017-Apr-22 18:00N 51°21' E 001°49'511.0
2017-Apr-22 17:30N 51°26' E 001°52'5 9.6
2017-Apr-22 17:01N 51°31' E 001°50'510.0
2017-Apr-22 16:30N 51°36' E 001°47'510.2
2017-Apr-22 16:01N 51°41' E 001°45'510.3
2017-Apr-22 15:31N 51°46' E 001°45'510.0
2017-Apr-22 15:01N 51°51' E 001°45'4 8.1
2017-Apr-22 14:30N 51°55' E 001°45'9 8.5
2017-Apr-22 13:30N 52°03' E 001°49'4 8.2
2017-Apr-22 13:01N 52°07' E 001°52'4 8.0
2017-Apr-22 12:31N 52°10' E 001°55'51 7.6
2017-Apr-22 05:51N 53°01' E 002°06'4 9.9
2017-Apr-22 05:28N 53°03' E 002°01'6 9.8
2017-Apr-22 04:53N 53°06' E 001°53'4 9.9
2017-Apr-22 04:29N 53°08' E 001°47'5 9.9
2017-Apr-22 03:57N 53°11' E 001°40'510.0
2017-Apr-22 03:29N 53°14' E 001°34'63 9.3
2017-Apr-21 20:46N 53°60' E 000°22'2 8.2
2017-Apr-21 20:30N 54°01' E 000°20'4 8.2
2017-Apr-21 20:00N 54°05' E 000°16'4 8.1
2017-Apr-21 19:30N 54°08' E 000°12'4 7.9
2017-Apr-21 19:00N 54°11' E 000°07'4 7.9
2017-Apr-21 18:30N 54°14' E 000°03'4 7.9
2017-Apr-21 18:00N 54°17' W 000°02'4 7.9
2017-Apr-21 17:30N 54°20' W 000°06'4 8.0
2017-Apr-21 17:00N 54°23' W 000°11'4 8.1
2017-Apr-21 16:30N 54°26' W 000°15'4 8.1
2017-Apr-21 16:00N 54°29' W 000°20'4 8.5
2017-Apr-21 15:30N 54°32' W 000°25'22 8.9
2017-Apr-21 13:02N 54°43' W 000°58'2 9.0
2017-Apr-21 12:50N 54°44' W 001°00'3 9.1
2017-Apr-21 12:30N 54°45' W 001°05'5 9.2
2017-Apr-21 12:00N 54°48' W 001°12'4 8.8
2017-Apr-21 11:30N 54°51' W 001°18'  
2017-Apr-16 17:29N 54°51' W 001°18'1 0.2
2017-Apr-16 13:32N 54°51' W 001°17'0 0.2
2017-Apr-16 12:13N 54°51' W 001°18'1 2.0
2017-Apr-16 11:53N 54°51' W 001°17'2 3.3
2017-Apr-16 11:25N 54°50' W 001°14'28 5.7
2017-Apr-16 06:29N 54°40' W 000°29'4 7.5
2017-Apr-16 06:00N 54°39' W 000°23'4 7.4
2017-Apr-16 05:30N 54°38' W 000°17'4 7.5
2017-Apr-16 05:00N 54°37' W 000°11'4 7.6
2017-Apr-16 04:30N 54°35' W 000°04'4 7.6
2017-Apr-16 04:00N 54°34' E 000°02'4 7.9
2017-Apr-16 03:30N 54°32' E 000°08'4 8.2
2017-Apr-16 03:00N 54°31' E 000°15'4 8.5
2017-Apr-16 02:30N 54°30' E 000°22'4 8.7
2017-Apr-16 02:00N 54°29' E 000°29'4 8.9
2017-Apr-16 01:30N 54°27' E 000°36'175 6.5
2017-Apr-14 22:47N 52°07' E 003°32'3 9.0
2017-Apr-14 22:28N 52°06' E 003°36'4 8.8
2017-Apr-14 22:00N 52°05' E 003°42'4 8.9
2017-Apr-14 21:30N 52°03' E 003°49'4 7.6
2017-Apr-14 21:00N 52°02' E 003°55'5 9.5
2017-Apr-14 20:30N 51°60' E 004°02'510.4
2017-Apr-14 20:00N 51°58' E 004°09'611.7
2017-Apr-14 19:30N 51°54' E 004°17'  

Dump ship's entire track history